createdAt,value
2023-05-15T00:02:07.547Z,22.92
2023-05-15T00:04:34.140Z,22.92
2023-05-15T00:07:00.738Z,22.91
2023-05-15T00:09:27.297Z,22.92
2023-05-15T00:11:55.819Z,22.89
2023-05-15T00:14:22.722Z,22.90
2023-05-15T00:16:49.269Z,22.89
2023-05-15T00:19:16.517Z,22.89
2023-05-15T00:21:43.342Z,22.75
2023-05-15T00:24:10.113Z,22.89
2023-05-15T00:26:36.876Z,22.89
2023-05-15T00:29:03.602Z,22.88
2023-05-15T00:31:30.153Z,22.88
2023-05-15T00:33:58.398Z,22.82
2023-05-15T00:36:26.025Z,22.88
2023-05-15T00:38:53.762Z,22.88
2023-05-15T00:41:22.627Z,22.84
2023-05-15T00:43:52.119Z,22.88
2023-05-15T00:46:21.201Z,22.77
2023-05-15T00:48:50.516Z,22.84
2023-05-15T00:51:18.006Z,22.85
2023-05-15T00:53:44.738Z,22.85
2023-05-15T00:56:12.498Z,22.85
2023-05-15T00:58:39.380Z,22.86
2023-05-15T01:01:08.306Z,22.86
2023-05-15T01:03:36.634Z,22.86
2023-05-15T01:06:03.509Z,22.85
2023-05-15T01:08:43.556Z,22.84
2023-05-15T01:11:13.222Z,22.84
2023-05-15T01:13:40.257Z,22.75
2023-05-15T01:16:07.980Z,22.76
2023-05-15T01:18:35.543Z,22.83
2023-05-15T01:21:05.004Z,22.83
2023-05-15T01:23:49.538Z,22.83
2023-05-15T01:26:31.257Z,22.82
2023-05-15T01:29:45.452Z,22.82
2023-05-15T01:32:20.625Z,22.81
2023-05-15T01:35:17.465Z,22.81
2023-05-15T01:37:51.157Z,22.76
2023-05-15T01:40:21.223Z,22.80
2023-05-15T01:42:56.107Z,22.79
2023-05-15T01:45:24.951Z,22.69
2023-05-15T01:47:53.821Z,22.77
2023-05-15T01:50:21.463Z,22.80
2023-05-15T01:52:52.151Z,22.80
2023-05-15T01:55:20.595Z,22.79
2023-05-15T01:57:49.474Z,22.78
2023-05-15T02:00:17.580Z,22.74
2023-05-15T02:02:45.819Z,22.79
2023-05-15T02:05:14.056Z,22.78
2023-05-15T02:07:45.270Z,22.79
2023-05-15T02:10:13.068Z,22.77
2023-05-15T02:12:43.370Z,22.76
2023-05-15T02:15:11.402Z,22.69
2023-05-15T02:17:38.149Z,22.74
2023-05-15T02:20:06.112Z,22.78
2023-05-15T02:22:32.699Z,22.77
2023-05-15T02:25:00.276Z,22.78
2023-05-15T02:27:28.533Z,22.79
2023-05-15T02:30:26.593Z,22.78
2023-05-15T02:33:31.241Z,22.77
2023-05-15T02:38:29.583Z,22.76
2023-05-15T02:40:58.017Z,22.76
2023-05-15T02:43:26.156Z,22.76
2023-05-15T02:45:54.413Z,22.73
2023-05-15T02:48:22.256Z,22.76
2023-05-15T02:50:48.839Z,22.76
2023-05-15T02:53:16.234Z,22.76
2023-05-15T02:55:42.967Z,22.74
2023-05-15T02:58:09.678Z,22.72
2023-05-15T03:00:36.381Z,22.73
2023-05-15T03:03:02.929Z,22.77
2023-05-15T03:05:29.612Z,22.74
2023-05-15T03:07:57.689Z,22.76
2023-05-15T03:10:24.399Z,22.76
2023-05-15T03:12:51.009Z,22.75
2023-05-15T03:15:18.289Z,22.76
2023-05-15T03:17:45.464Z,22.75
2023-05-15T03:20:12.332Z,22.75
2023-05-15T03:22:38.846Z,22.74
2023-05-15T03:25:05.972Z,22.75
2023-05-15T03:27:32.495Z,22.74
2023-05-15T03:29:59.193Z,22.73
2023-05-15T03:32:25.831Z,22.75
2023-05-15T03:34:52.786Z,22.75
2023-05-15T03:37:19.450Z,22.74
2023-05-15T03:39:46.000Z,22.73
2023-05-15T03:42:13.346Z,22.74
2023-05-15T03:44:41.200Z,22.74
2023-05-15T03:47:07.685Z,22.74
2023-05-15T03:49:35.016Z,22.73
2023-05-15T03:52:04.115Z,22.74
2023-05-15T03:54:30.699Z,22.74
2023-05-15T03:56:57.248Z,22.73
2023-05-15T03:59:24.060Z,22.71
2023-05-15T04:02:03.688Z,22.74
2023-05-15T04:04:31.929Z,22.73
2023-05-15T04:06:58.401Z,22.74
2023-05-15T04:09:24.953Z,22.61
2023-05-15T04:11:51.476Z,22.68
2023-05-15T04:14:18.252Z,22.71
2023-05-15T04:16:44.803Z,22.75
2023-05-15T04:19:11.572Z,22.75
2023-05-15T04:21:38.245Z,22.73
2023-05-15T04:24:05.159Z,22.66
2023-05-15T04:26:31.833Z,22.71
2023-05-15T04:29:04.149Z,22.72
2023-05-15T04:31:31.781Z,22.71
2023-05-15T04:33:58.626Z,22.72
2023-05-15T04:36:25.749Z,22.72
2023-05-15T04:38:52.322Z,22.72
2023-05-15T04:41:18.915Z,22.73
2023-05-15T04:46:02.279Z,22.53
2023-05-15T04:48:29.005Z,22.72
2023-05-15T04:50:55.565Z,22.72
2023-05-15T04:53:22.281Z,22.71
2023-05-15T04:55:51.323Z,22.72
2023-05-15T04:58:18.007Z,22.66
2023-05-15T05:00:44.585Z,22.74
2023-05-15T05:03:11.523Z,22.68
2023-05-15T05:05:40.080Z,22.72
2023-05-15T05:08:09.019Z,22.74
2023-05-15T05:10:35.505Z,22.75
2023-05-15T05:13:02.114Z,22.74
2023-05-15T05:15:28.773Z,22.75
2023-05-15T05:17:55.766Z,22.74
2023-05-15T05:20:22.302Z,22.76
2023-05-15T05:22:48.946Z,22.69
2023-05-15T05:25:18.454Z,22.78
2023-05-15T05:27:45.139Z,22.78
2023-05-15T05:30:12.134Z,22.78
2023-05-15T05:32:38.797Z,22.74
2023-05-15T05:35:05.759Z,22.77
2023-05-15T05:37:32.498Z,22.77
2023-05-15T05:39:59.007Z,22.81
2023-05-15T05:42:25.562Z,22.86
2023-05-15T05:44:52.148Z,22.89
2023-05-15T05:47:18.767Z,22.92
2023-05-15T05:49:48.045Z,22.94
2023-05-15T05:52:16.011Z,22.96
2023-05-15T05:54:42.894Z,22.93
2023-05-15T05:57:10.053Z,22.97
2023-05-15T05:59:37.328Z,23.00
2023-05-15T06:02:04.712Z,22.64
2023-05-15T06:04:35.578Z,23.00
2023-05-15T06:07:02.936Z,22.99
2023-05-15T06:09:29.414Z,22.88
2023-05-15T06:11:56.080Z,22.99
2023-05-15T06:14:23.320Z,22.99
2023-05-15T06:16:50.289Z,22.99
2023-05-15T06:19:17.125Z,22.99
2023-05-15T06:21:43.905Z,22.96
2023-05-15T06:24:10.493Z,22.99
2023-05-15T06:26:37.167Z,22.99
2023-05-15T06:29:03.858Z,22.94
2023-05-15T06:31:30.492Z,23.00
2023-05-15T06:33:56.985Z,23.00
2023-05-15T06:36:24.055Z,23.01
2023-05-15T06:38:50.561Z,23.00
2023-05-15T06:41:17.286Z,23.01
2023-05-15T06:43:43.851Z,22.98
2023-05-15T06:46:10.566Z,22.88
2023-05-15T06:48:37.246Z,23.04
2023-05-15T06:51:04.210Z,23.06
2023-05-15T06:53:30.797Z,23.04
2023-05-15T06:55:57.732Z,23.06
2023-05-15T06:58:24.694Z,23.08
2023-05-15T07:00:52.111Z,23.09
2023-05-15T07:03:20.122Z,23.10
2023-05-15T07:05:46.932Z,23.08
2023-05-15T07:08:13.518Z,23.10
2023-05-15T07:10:40.245Z,22.99
2023-05-15T07:13:09.431Z,23.11
2023-05-15T07:15:36.063Z,23.11
2023-05-15T07:18:02.664Z,23.13
2023-05-15T07:20:31.781Z,23.14
2023-05-15T07:23:00.060Z,23.05
2023-05-15T07:25:29.706Z,23.04
2023-05-15T07:27:56.328Z,23.05
2023-05-15T07:32:50.105Z,23.20
2023-05-15T07:35:16.914Z,23.21
2023-05-15T07:37:43.564Z,23.07
2023-05-15T07:40:10.646Z,23.21
2023-05-15T07:42:37.147Z,23.25
2023-05-15T07:45:04.107Z,23.11
2023-05-15T07:49:57.716Z,22.74
2023-05-15T07:52:24.420Z,23.27
2023-05-15T07:54:51.114Z,23.27
2023-05-15T07:57:18.326Z,23.16
2023-05-15T07:59:44.880Z,23.28
2023-05-15T08:02:11.529Z,23.21
2023-05-15T08:04:38.207Z,23.28
2023-05-15T08:07:06.982Z,23.25
2023-05-15T08:09:33.475Z,23.29
2023-05-15T08:12:22.485Z,23.31
2023-05-15T08:14:54.118Z,23.28
2023-05-15T08:17:21.291Z,23.31
2023-05-15T08:19:48.301Z,23.31
2023-05-15T08:22:15.372Z,23.23
2023-05-15T08:24:42.110Z,23.31
2023-05-15T08:27:09.489Z,23.28
2023-05-15T08:29:38.677Z,23.35
2023-05-15T08:32:07.372Z,23.25
2023-05-15T08:34:33.974Z,23.33
2023-05-15T08:37:00.641Z,23.28
2023-05-15T08:39:27.241Z,23.35
2023-05-15T08:42:00.623Z,23.29
2023-05-15T08:44:28.001Z,23.15
2023-05-15T08:46:54.968Z,23.17
2023-05-15T08:49:51.326Z,23.31
2023-05-15T08:52:17.909Z,23.30
2023-05-15T08:54:45.475Z,23.27
2023-05-15T08:57:14.827Z,23.30
2023-05-15T08:59:42.277Z,23.30
2023-05-15T09:02:09.346Z,23.30
2023-05-15T09:04:38.685Z,23.30
2023-05-15T09:07:05.784Z,23.18
2023-05-15T09:09:34.268Z,23.30
2023-05-15T09:12:02.481Z,23.30
2023-05-15T09:14:28.901Z,23.25
2023-05-15T09:16:55.442Z,23.30
2023-05-15T09:19:22.479Z,23.30
2023-05-15T09:21:49.378Z,23.31
2023-05-15T09:24:22.781Z,23.29
2023-05-15T09:27:04.658Z,23.25
2023-05-15T09:29:33.453Z,23.32
2023-05-15T09:32:08.699Z,23.17
2023-05-15T09:34:43.598Z,23.31
2023-05-15T09:37:13.194Z,23.31
2023-05-15T09:39:44.199Z,21.93
2023-05-15T09:42:13.177Z,23.31
2023-05-15T09:44:43.974Z,23.32
2023-05-15T09:47:12.595Z,23.32
2023-05-15T09:49:39.944Z,23.29
2023-05-15T09:52:09.824Z,23.25
2023-05-15T09:54:37.454Z,23.31
2023-05-15T09:57:09.553Z,23.31
2023-05-15T09:59:36.300Z,23.26
2023-05-15T10:02:02.985Z,23.17
2023-05-15T10:04:35.582Z,23.22
2023-05-15T10:07:02.256Z,23.30
2023-05-15T10:09:32.422Z,23.30
2023-05-15T10:11:59.144Z,23.31
2023-05-15T10:14:26.735Z,23.27
2023-05-15T10:16:55.721Z,23.26
2023-05-15T10:19:24.010Z,23.31
2023-05-15T10:21:53.022Z,23.32
2023-05-15T10:24:21.191Z,23.31
2023-05-15T10:26:49.127Z,23.32
2023-05-15T10:29:18.852Z,23.30
2023-05-15T10:31:48.726Z,23.32
2023-05-15T10:34:16.348Z,23.24
2023-05-15T10:36:43.512Z,23.31
2023-05-15T10:39:10.427Z,23.21
2023-05-15T10:41:39.978Z,23.32
2023-05-15T10:44:06.809Z,22.90
2023-05-15T10:46:36.091Z,23.22
2023-05-15T10:49:03.401Z,23.32
2023-05-15T10:51:32.983Z,23.27
2023-05-15T10:54:01.330Z,23.30
2023-05-15T10:56:32.454Z,23.31
2023-05-15T10:59:05.988Z,23.31
2023-05-15T11:01:35.132Z,23.28
2023-05-15T11:04:08.122Z,23.31
2023-05-15T11:06:36.021Z,23.33
2023-05-15T11:09:34.674Z,23.30
2023-05-15T11:12:03.260Z,23.32
2023-05-15T11:14:41.018Z,23.18
2023-05-15T11:17:09.588Z,23.31
2023-05-15T11:19:40.205Z,23.33
2023-05-15T11:22:33.458Z,23.32
2023-05-15T11:25:14.287Z,23.32
2023-05-15T11:27:45.361Z,23.21
2023-05-15T11:30:17.906Z,23.31
2023-05-15T11:32:45.895Z,23.26
2023-05-15T11:35:19.745Z,23.32
2023-05-15T11:37:51.965Z,23.31
2023-05-15T11:40:28.974Z,23.31
2023-05-15T11:43:03.959Z,23.31
2023-05-15T11:45:38.464Z,23.32
2023-05-15T11:48:08.154Z,23.27
2023-05-15T11:50:37.112Z,23.18
2023-05-15T11:53:08.281Z,23.33
2023-05-15T11:57:54.428Z,23.33
2023-05-15T12:00:21.941Z,23.36
2023-05-15T12:02:48.505Z,23.31
2023-05-15T12:05:15.267Z,23.36
2023-05-15T12:07:43.283Z,23.36
2023-05-15T12:10:13.497Z,23.30
2023-05-15T12:12:44.337Z,23.37
2023-05-15T12:15:18.005Z,23.32
2023-05-15T12:17:46.033Z,23.22
2023-05-15T12:22:42.619Z,23.40
2023-05-15T12:25:11.437Z,23.40
2023-05-15T12:27:41.585Z,23.40
2023-05-15T12:30:10.825Z,23.36
2023-05-15T12:32:38.834Z,23.42
2023-05-15T12:35:08.099Z,23.42
2023-05-15T12:37:38.829Z,23.30
2023-05-15T12:40:12.785Z,23.44
2023-05-15T12:42:43.906Z,23.44
2023-05-15T12:45:17.197Z,23.44
2023-05-15T12:47:45.742Z,23.44
2023-05-15T12:52:31.288Z,23.43
2023-05-15T12:55:00.705Z,23.24
2023-05-15T12:57:27.291Z,23.46
2023-05-15T12:59:53.912Z,23.43
2023-05-15T13:02:23.070Z,23.36
2023-05-15T13:04:49.893Z,23.46
2023-05-15T13:09:46.412Z,23.47
2023-05-15T13:12:12.941Z,23.47
2023-05-15T13:14:39.545Z,23.41
2023-05-15T13:17:06.177Z,23.21
2023-05-15T13:19:32.856Z,23.30
2023-05-15T13:22:00.179Z,23.35
2023-05-15T13:24:29.924Z,23.46
2023-05-15T13:26:56.486Z,23.46
2023-05-15T13:29:23.054Z,23.41
2023-05-15T13:31:49.629Z,23.46
2023-05-15T13:34:16.269Z,23.45
2023-05-15T13:36:42.811Z,23.20
2023-05-15T13:39:09.628Z,23.46
2023-05-15T13:41:36.737Z,23.42
2023-05-15T13:44:03.419Z,23.37
2023-05-15T13:46:30.136Z,23.46
2023-05-15T13:48:57.011Z,23.47
2023-05-15T13:51:23.487Z,23.47
2023-05-15T13:53:50.073Z,23.44
2023-05-15T13:56:16.601Z,23.48
2023-05-15T13:58:43.265Z,23.47
2023-05-15T14:01:09.842Z,23.37
2023-05-15T14:03:36.644Z,23.48
2023-05-15T14:06:03.578Z,23.30
2023-05-15T14:08:30.177Z,23.47
2023-05-15T14:10:56.779Z,23.46
2023-05-15T14:13:24.264Z,23.47
2023-05-15T14:15:51.094Z,23.34
2023-05-15T14:18:17.676Z,23.48
2023-05-15T14:20:44.303Z,23.20
2023-05-15T14:23:11.023Z,23.48
2023-05-15T14:25:37.558Z,23.47
2023-05-15T14:28:04.099Z,23.34
2023-05-15T14:30:30.604Z,23.48
2023-05-15T14:32:57.340Z,23.48
2023-05-15T14:35:23.836Z,23.48
2023-05-15T14:37:50.476Z,23.49
2023-05-15T14:40:17.134Z,23.49
2023-05-15T14:42:43.689Z,23.49
2023-05-15T14:45:10.713Z,23.39
2023-05-15T14:47:37.436Z,23.50
2023-05-15T14:50:04.331Z,23.37
2023-05-15T14:52:31.013Z,23.51
2023-05-15T14:55:08.382Z,23.50
2023-05-15T14:57:36.718Z,23.51
2023-05-15T15:00:06.278Z,23.31
2023-05-15T15:02:33.120Z,23.50
2023-05-15T15:04:59.761Z,23.48
2023-05-15T15:07:29.893Z,23.49
2023-05-15T15:09:57.998Z,23.50
2023-05-15T15:12:24.554Z,23.38
2023-05-15T15:14:51.036Z,23.49
2023-05-15T15:17:18.321Z,23.46
2023-05-15T15:19:44.844Z,23.50
2023-05-15T15:22:11.584Z,23.42
2023-05-15T15:24:38.089Z,23.50
2023-05-15T15:27:04.845Z,23.50
2023-05-15T15:29:31.328Z,23.50
2023-05-15T15:31:58.013Z,23.49
2023-05-15T15:34:24.631Z,23.50
2023-05-15T15:36:51.398Z,23.39
2023-05-15T15:39:17.916Z,23.40
2023-05-15T15:41:44.495Z,23.50
2023-05-15T15:44:10.974Z,23.49
2023-05-15T15:46:37.666Z,23.30
2023-05-15T15:49:05.259Z,23.51
2023-05-15T15:51:33.161Z,23.52
2023-05-15T15:53:59.651Z,23.25
2023-05-15T15:56:26.431Z,23.52
2023-05-15T15:58:53.105Z,23.51
2023-05-15T16:01:19.838Z,23.51
2023-05-15T16:03:46.474Z,23.37
2023-05-15T16:06:13.109Z,23.50
2023-05-15T16:08:39.648Z,23.51
2023-05-15T16:11:06.471Z,23.45
2023-05-15T16:13:33.037Z,23.49
2023-05-15T16:15:59.641Z,23.50
2023-05-15T16:18:26.180Z,23.50
2023-05-15T16:20:52.719Z,23.48
2023-05-15T16:23:21.058Z,23.51
2023-05-15T16:25:47.650Z,23.49
2023-05-15T16:28:14.398Z,23.50
2023-05-15T16:30:48.782Z,23.44
2023-05-15T16:33:19.725Z,23.42
2023-05-15T16:35:46.561Z,23.46
2023-05-15T16:38:19.557Z,23.38
2023-05-15T16:40:46.525Z,23.32
2023-05-15T16:43:13.547Z,23.49
2023-05-15T16:45:40.349Z,23.48
2023-05-15T16:48:10.018Z,23.49
2023-05-15T16:50:37.257Z,23.48
2023-05-15T16:53:04.842Z,23.49
2023-05-15T16:55:32.042Z,23.48
2023-05-15T16:57:58.624Z,23.42
2023-05-15T17:00:25.386Z,23.47
2023-05-15T17:02:52.215Z,23.45
2023-05-15T17:05:18.825Z,23.49
2023-05-15T17:07:45.398Z,23.48
2023-05-15T17:10:13.275Z,23.48
2023-05-15T17:12:40.062Z,23.43
2023-05-15T17:15:11.219Z,23.15
2023-05-15T17:17:37.965Z,23.25
2023-05-15T17:20:05.653Z,23.04
2023-05-15T17:22:33.158Z,23.08
2023-05-15T17:24:59.763Z,23.00
2023-05-15T17:27:26.577Z,22.89
2023-05-15T17:29:53.266Z,22.83
2023-05-15T17:32:20.437Z,22.75
2023-05-15T17:34:51.275Z,22.68
2023-05-15T17:37:17.951Z,22.52
2023-05-15T17:39:44.504Z,22.57
2023-05-15T17:42:11.381Z,22.64
2023-05-15T17:44:37.911Z,22.67
2023-05-15T17:47:04.911Z,22.71
2023-05-15T17:49:34.075Z,22.67
2023-05-15T17:52:00.918Z,22.60
2023-05-15T17:54:27.481Z,22.49
2023-05-15T17:56:54.074Z,22.41
2023-05-15T17:59:20.824Z,22.28
2023-05-15T18:01:47.540Z,22.07
2023-05-15T18:04:14.634Z,22.10
2023-05-15T18:06:41.386Z,22.03
2023-05-15T18:09:08.152Z,21.87
2023-05-15T18:11:34.970Z,21.71
2023-05-15T18:14:03.122Z,21.75
2023-05-15T18:16:31.210Z,21.73
2023-05-15T18:18:58.371Z,21.64
2023-05-15T18:21:25.510Z,21.69
2023-05-15T18:23:52.119Z,21.65
2023-05-15T18:26:18.714Z,21.85
2023-05-15T18:28:45.188Z,21.97
2023-05-15T18:31:11.777Z,21.97
2023-05-15T18:33:39.617Z,22.18
2023-05-15T18:36:07.533Z,22.25
2023-05-15T18:38:34.539Z,22.35
2023-05-15T18:41:01.069Z,22.44
2023-05-15T18:43:27.967Z,22.50
2023-05-15T18:45:54.744Z,22.53
2023-05-15T18:48:21.322Z,22.59
2023-05-15T18:50:51.672Z,22.62
2023-05-15T18:53:18.543Z,22.64
2023-05-15T18:55:45.076Z,22.69
2023-05-15T18:58:11.604Z,22.72
2023-05-15T19:00:38.653Z,22.74
2023-05-15T19:03:06.620Z,22.76
2023-05-15T19:05:34.065Z,22.42
2023-05-15T19:08:01.374Z,22.79
2023-05-15T19:10:30.893Z,22.80
2023-05-15T19:12:58.150Z,22.76
2023-05-15T19:15:25.322Z,22.81
2023-05-15T19:17:52.124Z,22.82
2023-05-15T19:20:19.699Z,22.82
2023-05-15T19:22:46.614Z,22.82
2023-05-15T19:25:13.353Z,22.84
2023-05-15T19:27:40.069Z,22.84
2023-05-15T19:30:07.771Z,22.86
2023-05-15T19:32:34.684Z,22.83
2023-05-15T19:35:01.446Z,22.85
2023-05-15T19:37:28.002Z,22.87
2023-05-15T19:39:54.850Z,22.87
2023-05-15T19:42:21.514Z,22.81
2023-05-15T19:44:48.029Z,22.86
2023-05-15T19:47:14.713Z,22.87
2023-05-15T19:49:41.356Z,22.88
2023-05-15T19:52:07.993Z,22.89
2023-05-15T19:54:34.488Z,22.88
2023-05-15T19:57:02.865Z,22.85
2023-05-15T19:59:29.912Z,22.92
2023-05-15T20:01:57.327Z,22.92
2023-05-15T20:04:24.049Z,22.93
2023-05-15T20:06:50.795Z,22.88
2023-05-15T20:09:17.525Z,22.95
2023-05-15T20:11:45.062Z,22.97
2023-05-15T20:14:11.650Z,22.97
2023-05-15T20:16:38.461Z,22.94
2023-05-15T20:19:05.965Z,22.98
2023-05-15T20:21:34.160Z,22.89
2023-05-15T20:24:01.051Z,22.94
2023-05-15T20:26:30.665Z,23.00
2023-05-15T20:28:58.026Z,23.00
2023-05-15T20:31:24.627Z,23.00
2023-05-15T20:33:51.137Z,23.00
2023-05-15T20:36:18.256Z,23.01
2023-05-15T20:38:44.970Z,23.03
2023-05-15T20:41:11.755Z,23.03
2023-05-15T20:43:39.056Z,23.03
2023-05-15T20:46:08.833Z,23.03
2023-05-15T20:48:36.253Z,23.01
2023-05-15T20:51:03.245Z,23.04
2023-05-15T20:53:29.997Z,23.05
2023-05-15T20:55:56.613Z,23.06
2023-05-15T20:58:23.209Z,23.06
2023-05-15T21:00:49.808Z,23.06
2023-05-15T21:03:16.631Z,23.07
2023-05-15T21:05:43.316Z,23.07
2023-05-15T21:08:09.824Z,23.07
2023-05-15T21:10:36.337Z,23.08
2023-05-15T21:13:02.907Z,23.08
2023-05-15T21:15:29.771Z,22.73
2023-05-15T21:17:59.199Z,23.07
2023-05-15T21:20:27.100Z,22.95
2023-05-15T21:25:16.293Z,22.49
2023-05-15T21:27:42.875Z,23.05
2023-05-15T21:30:09.787Z,23.05
2023-05-15T21:32:36.468Z,23.04
2023-05-15T21:37:21.068Z,23.05
2023-05-15T21:39:47.693Z,22.92
2023-05-15T21:42:14.160Z,23.03
2023-05-15T21:44:41.168Z,23.03
2023-05-15T21:49:31.932Z,22.99
2023-05-15T21:51:58.967Z,23.01
2023-05-15T21:54:25.629Z,22.86
2023-05-15T21:56:52.376Z,22.99
2023-05-15T21:59:19.170Z,23.00
2023-05-15T22:01:46.269Z,22.99
2023-05-15T22:04:13.087Z,22.99
2023-05-15T22:06:39.741Z,22.98
2023-05-15T22:09:06.255Z,22.98
2023-05-15T22:11:33.148Z,22.98
2023-05-15T22:13:59.837Z,22.86
2023-05-15T22:16:29.394Z,22.97
2023-05-15T22:18:55.959Z,22.86
2023-05-15T22:21:22.506Z,22.84
2023-05-15T22:23:49.302Z,22.94
2023-05-15T22:28:47.224Z,22.96
2023-05-15T22:31:14.253Z,22.96
2023-05-15T22:33:40.781Z,22.86
2023-05-15T22:36:07.525Z,22.96
2023-05-15T22:38:34.013Z,22.96
2023-05-15T22:41:00.633Z,22.95
2023-05-15T22:43:29.965Z,22.87
2023-05-15T22:45:56.493Z,22.94
2023-05-15T22:48:23.215Z,22.94
2023-05-15T22:50:49.860Z,22.80
2023-05-15T22:53:16.356Z,22.88
2023-05-15T22:55:43.850Z,22.93
2023-05-15T22:58:10.425Z,22.94
2023-05-15T23:00:37.806Z,22.92
2023-05-15T23:03:04.435Z,22.92
2023-05-15T23:05:31.283Z,22.93
2023-05-15T23:07:57.761Z,22.91
2023-05-15T23:10:24.603Z,22.59
2023-05-15T23:12:51.323Z,22.92
2023-05-15T23:15:17.868Z,22.92
2023-05-15T23:17:44.387Z,22.91
2023-05-15T23:20:12.699Z,22.90
2023-05-15T23:22:39.422Z,22.91
2023-05-15T23:25:07.335Z,22.78
2023-05-15T23:27:34.266Z,22.91
2023-05-15T23:30:01.089Z,22.88
2023-05-15T23:32:27.732Z,22.91
2023-05-15T23:34:54.545Z,22.90
2023-05-15T23:37:21.124Z,22.84
2023-05-15T23:39:47.922Z,22.90
2023-05-15T23:42:14.650Z,22.90
2023-05-15T23:44:41.227Z,22.86
2023-05-15T23:47:08.180Z,22.89
2023-05-15T23:49:36.306Z,22.88
2023-05-15T23:52:02.867Z,22.89
2023-05-15T23:54:29.457Z,22.88
2023-05-15T23:56:56.125Z,22.88
2023-05-15T23:59:22.764Z,22.89
